sensor_id;sensor_type;location;lat;lon;timestamp;temperature;humidity
14614;DHT22;7393;51.446;6.800;2023-08-07T00:00:58;14.10;1.00
14614;DHT22;7393;51.446;6.800;2023-08-07T00:03:25;14.10;1.00
14614;DHT22;7393;51.446;6.800;2023-08-07T00:05:52;14.10;1.00
14614;DHT22;7393;51.446;6.800;2023-08-07T00:08:21;14.10;1.00
14614;DHT22;7393;51.446;6.800;2023-08-07T00:10:48;14.10;1.00
14614;DHT22;7393;51.446;6.800;2023-08-07T00:13:15;14.10;1.00
14614;DHT22;7393;51.446;6.800;2023-08-07T00:15:42;14.10;1.00
14614;DHT22;7393;51.446;6.800;2023-08-07T00:18:08;14.10;1.00
14614;DHT22;7393;51.446;6.800;2023-08-07T00:20:35;14.10;1.00
14614;DHT22;7393;51.446;6.800;2023-08-07T00:23:02;14.10;1.00
14614;DHT22;7393;51.446;6.800;2023-08-07T00:25:30;14.10;1.00
14614;DHT22;7393;51.446;6.800;2023-08-07T00:27:57;14.10;1.00
14614;DHT22;7393;51.446;6.800;2023-08-07T00:30:24;14.10;1.00
14614;DHT22;7393;51.446;6.800;2023-08-07T00:32:50;14.10;1.00
14614;DHT22;7393;51.446;6.800;2023-08-07T00:35:17;14.10;1.00
14614;DHT22;7393;51.446;6.800;2023-08-07T00:37:44;14.10;1.00
14614;DHT22;7393;51.446;6.800;2023-08-07T00:40:11;14.00;1.00
14614;DHT22;7393;51.446;6.800;2023-08-07T00:42:39;14.00;1.00
14614;DHT22;7393;51.446;6.800;2023-08-07T00:45:07;14.10;1.00
14614;DHT22;7393;51.446;6.800;2023-08-07T00:47:34;14.10;1.00
14614;DHT22;7393;51.446;6.800;2023-08-07T00:50:03;14.10;1.00
14614;DHT22;7393;51.446;6.800;2023-08-07T00:52:30;14.10;1.00
14614;DHT22;7393;51.446;6.800;2023-08-07T00:54:58;14.00;1.00
14614;DHT22;7393;51.446;6.800;2023-08-07T00:57:25;14.10;1.00
14614;DHT22;7393;51.446;6.800;2023-08-07T00:59:53;14.10;1.00
14614;DHT22;7393;51.446;6.800;2023-08-07T01:02:20;14.10;1.00
14614;DHT22;7393;51.446;6.800;2023-08-07T01:04:47;14.10;1.00
14614;DHT22;7393;51.446;6.800;2023-08-07T01:07:14;14.10;1.00
14614;DHT22;7393;51.446;6.800;2023-08-07T01:09:41;14.10;1.00
14614;DHT22;7393;51.446;6.800;2023-08-07T01:12:13;14.10;1.00
14614;DHT22;7393;51.446;6.800;2023-08-07T01:14:48;14.10;1.00
14614;DHT22;7393;51.446;6.800;2023-08-07T01:17:20;14.10;1.00
14614;DHT22;7393;51.446;6.800;2023-08-07T01:19:47;14.10;1.00
14614;DHT22;7393;51.446;6.800;2023-08-07T01:22:18;14.10;1.00
14614;DHT22;7393;51.446;6.800;2023-08-07T01:24:47;14.00;1.00
14614;DHT22;7393;51.446;6.800;2023-08-07T01:27:23;14.10;1.00
14614;DHT22;7393;51.446;6.800;2023-08-07T01:29:55;14.10;1.00
14614;DHT22;7393;51.446;6.800;2023-08-07T01:32:27;14.10;1.00
14614;DHT22;7393;51.446;6.800;2023-08-07T01:34:55;14.10;1.00
14614;DHT22;7393;51.446;6.800;2023-08-07T01:37:25;14.00;1.00
14614;DHT22;7393;51.446;6.800;2023-08-07T01:39:53;14.00;1.00
14614;DHT22;7393;51.446;6.800;2023-08-07T01:42:21;14.10;1.00
14614;DHT22;7393;51.446;6.800;2023-08-07T01:44:47;14.00;1.00
14614;DHT22;7393;51.446;6.800;2023-08-07T01:47:14;14.00;1.00
14614;DHT22;7393;51.446;6.800;2023-08-07T01:49:41;14.00;1.00
14614;DHT22;7393;51.446;6.800;2023-08-07T01:52:08;14.00;1.00
14614;DHT22;7393;51.446;6.800;2023-08-07T01:54:38;14.00;1.00
14614;DHT22;7393;51.446;6.800;2023-08-07T01:57:05;14.00;1.00
14614;DHT22;7393;51.446;6.800;2023-08-07T01:59:32;13.90;1.00
14614;DHT22;7393;51.446;6.800;2023-08-07T02:01:59;14.00;1.00
14614;DHT22;7393;51.446;6.800;2023-08-07T02:04:25;13.90;1.00
14614;DHT22;7393;51.446;6.800;2023-08-07T02:06:52;13.90;1.00
14614;DHT22;7393;51.446;6.800;2023-08-07T02:09:19;13.90;1.00
14614;DHT22;7393;51.446;6.800;2023-08-07T02:11:47;13.90;1.00
14614;DHT22;7393;51.446;6.800;2023-08-07T02:14:14;13.90;1.00
14614;DHT22;7393;51.446;6.800;2023-08-07T02:16:41;13.80;1.00
14614;DHT22;7393;51.446;6.800;2023-08-07T02:19:08;13.90;1.00
14614;DHT22;7393;51.446;6.800;2023-08-07T02:21:34;13.90;1.00
14614;DHT22;7393;51.446;6.800;2023-08-07T02:24:01;13.80;1.00
14614;DHT22;7393;51.446;6.800;2023-08-07T02:26:28;13.90;1.00
14614;DHT22;7393;51.446;6.800;2023-08-07T02:28:56;13.80;1.00
14614;DHT22;7393;51.446;6.800;2023-08-07T02:31:23;13.80;1.00
14614;DHT22;7393;51.446;6.800;2023-08-07T02:33:50;13.80;1.00
14614;DHT22;7393;51.446;6.800;2023-08-07T02:36:16;13.80;1.00
14614;DHT22;7393;51.446;6.800;2023-08-07T02:38:43;13.80;1.00
14614;DHT22;7393;51.446;6.800;2023-08-07T02:41:10;13.70;1.00
14614;DHT22;7393;51.446;6.800;2023-08-07T02:43:37;13.70;1.00
14614;DHT22;7393;51.446;6.800;2023-08-07T02:46:05;13.70;1.00
14614;DHT22;7393;51.446;6.800;2023-08-07T02:48:32;13.70;1.00
14614;DHT22;7393;51.446;6.800;2023-08-07T02:50:58;13.70;1.00
14614;DHT22;7393;51.446;6.800;2023-08-07T02:53:25;13.70;1.00
14614;DHT22;7393;51.446;6.800;2023-08-07T02:55:52;13.70;1.00
14614;DHT22;7393;51.446;6.800;2023-08-07T02:58:19;13.70;1.00
14614;DHT22;7393;51.446;6.800;2023-08-07T03:00:45;13.70;1.00
14614;DHT22;7393;51.446;6.800;2023-08-07T03:03:14;13.80;1.00
14614;DHT22;7393;51.446;6.800;2023-08-07T03:05:48;13.80;1.00
14614;DHT22;7393;51.446;6.800;2023-08-07T03:08:15;13.70;1.00
14614;DHT22;7393;51.446;6.800;2023-08-07T03:10:42;13.70;1.00
14614;DHT22;7393;51.446;6.800;2023-08-07T03:13:08;13.70;1.00
14614;DHT22;7393;51.446;6.800;2023-08-07T03:15:35;13.80;1.00
14614;DHT22;7393;51.446;6.800;2023-08-07T03:18:02;13.70;1.00
14614;DHT22;7393;51.446;6.800;2023-08-07T03:20:30;13.80;1.00
14614;DHT22;7393;51.446;6.800;2023-08-07T03:22:57;13.80;1.00
14614;DHT22;7393;51.446;6.800;2023-08-07T03:25:24;13.80;1.00
14614;DHT22;7393;51.446;6.800;2023-08-07T03:27:51;13.80;1.00
14614;DHT22;7393;51.446;6.800;2023-08-07T03:30:17;13.80;1.00
14614;DHT22;7393;51.446;6.800;2023-08-07T03:32:44;13.80;1.00
14614;DHT22;7393;51.446;6.800;2023-08-07T03:35:11;13.90;1.00
14614;DHT22;7393;51.446;6.800;2023-08-07T03:37:39;13.80;1.00
14614;DHT22;7393;51.446;6.800;2023-08-07T03:40:07;13.80;1.00
14614;DHT22;7393;51.446;6.800;2023-08-07T03:42:34;13.80;1.00
14614;DHT22;7393;51.446;6.800;2023-08-07T03:45:01;13.80;1.00
14614;DHT22;7393;51.446;6.800;2023-08-07T03:47:27;13.80;1.00
14614;DHT22;7393;51.446;6.800;2023-08-07T03:49:54;13.80;1.00
14614;DHT22;7393;51.446;6.800;2023-08-07T03:52:21;13.80;1.00
14614;DHT22;7393;51.446;6.800;2023-08-07T03:54:49;13.70;1.00
14614;DHT22;7393;51.446;6.800;2023-08-07T03:57:16;13.70;1.00
14614;DHT22;7393;51.446;6.800;2023-08-07T03:59:43;13.70;1.00
14614;DHT22;7393;51.446;6.800;2023-08-07T04:02:10;13.80;1.00
14614;DHT22;7393;51.446;6.800;2023-08-07T04:04:37;13.80;1.00
14614;DHT22;7393;51.446;6.800;2023-08-07T04:07:04;13.70;1.00
14614;DHT22;7393;51.446;6.800;2023-08-07T04:09:31;13.70;1.00
14614;DHT22;7393;51.446;6.800;2023-08-07T04:12:00;13.80;1.00
14614;DHT22;7393;51.446;6.800;2023-08-07T04:14:26;13.70;1.00
14614;DHT22;7393;51.446;6.800;2023-08-07T04:16:53;13.80;1.00
14614;DHT22;7393;51.446;6.800;2023-08-07T04:19:20;13.80;1.00
14614;DHT22;7393;51.446;6.800;2023-08-07T04:21:47;13.70;1.00
14614;DHT22;7393;51.446;6.800;2023-08-07T04:24:14;13.70;1.00
14614;DHT22;7393;51.446;6.800;2023-08-07T04:26:41;13.70;1.00
14614;DHT22;7393;51.446;6.800;2023-08-07T04:29:09;13.70;1.00
14614;DHT22;7393;51.446;6.800;2023-08-07T04:31:35;13.70;1.00
14614;DHT22;7393;51.446;6.800;2023-08-07T04:34:02;13.80;1.00
14614;DHT22;7393;51.446;6.800;2023-08-07T04:36:30;13.80;1.00
14614;DHT22;7393;51.446;6.800;2023-08-07T04:38:57;13.80;1.00
14614;DHT22;7393;51.446;6.800;2023-08-07T04:41:23;13.80;1.00
14614;DHT22;7393;51.446;6.800;2023-08-07T04:43:50;13.80;1.00
14614;DHT22;7393;51.446;6.800;2023-08-07T04:46:19;13.80;1.00
14614;DHT22;7393;51.446;6.800;2023-08-07T04:48:45;13.80;1.00
14614;DHT22;7393;51.446;6.800;2023-08-07T04:51:13;13.80;1.00
14614;DHT22;7393;51.446;6.800;2023-08-07T04:53:41;13.80;1.00
14614;DHT22;7393;51.446;6.800;2023-08-07T04:56:07;13.80;1.00
14614;DHT22;7393;51.446;6.800;2023-08-07T04:58:34;13.80;1.00
14614;DHT22;7393;51.446;6.800;2023-08-07T05:01:01;13.80;1.00
14614;DHT22;7393;51.446;6.800;2023-08-07T05:03:30;13.80;1.00
14614;DHT22;7393;51.446;6.800;2023-08-07T05:06:00;13.80;1.00
14614;DHT22;7393;51.446;6.800;2023-08-07T05:08:27;13.80;1.00
14614;DHT22;7393;51.446;6.800;2023-08-07T05:10:54;13.90;1.00
14614;DHT22;7393;51.446;6.800;2023-08-07T05:13:21;13.90;1.00
14614;DHT22;7393;51.446;6.800;2023-08-07T05:15:48;13.90;1.00
14614;DHT22;7393;51.446;6.800;2023-08-07T05:18:14;13.90;1.00
14614;DHT22;7393;51.446;6.800;2023-08-07T05:20:43;13.90;1.00
14614;DHT22;7393;51.446;6.800;2023-08-07T05:23:09;13.80;1.00
14614;DHT22;7393;51.446;6.800;2023-08-07T05:25:37;13.80;1.00
14614;DHT22;7393;51.446;6.800;2023-08-07T05:28:04;13.80;1.00
14614;DHT22;7393;51.446;6.800;2023-08-07T05:30:31;13.80;1.00
14614;DHT22;7393;51.446;6.800;2023-08-07T05:32:58;13.80;1.00
14614;DHT22;7393;51.446;6.800;2023-08-07T05:35:25;13.80;1.00
14614;DHT22;7393;51.446;6.800;2023-08-07T05:37:53;13.80;1.00
14614;DHT22;7393;51.446;6.800;2023-08-07T05:40:20;13.70;1.00
14614;DHT22;7393;51.446;6.800;2023-08-07T05:42:46;13.70;1.00
14614;DHT22;7393;51.446;6.800;2023-08-07T05:45:13;13.60;1.00
14614;DHT22;7393;51.446;6.800;2023-08-07T05:47:40;13.70;1.00
14614;DHT22;7393;51.446;6.800;2023-08-07T05:50:08;13.70;1.00
14614;DHT22;7393;51.446;6.800;2023-08-07T05:52:35;13.70;1.00
14614;DHT22;7393;51.446;6.800;2023-08-07T05:55:03;13.60;1.00
14614;DHT22;7393;51.446;6.800;2023-08-07T05:57:30;13.60;1.00
14614;DHT22;7393;51.446;6.800;2023-08-07T05:59:57;13.60;1.00
14614;DHT22;7393;51.446;6.800;2023-08-07T06:02:24;13.60;1.00
14614;DHT22;7393;51.446;6.800;2023-08-07T06:04:52;13.60;1.00
14614;DHT22;7393;51.446;6.800;2023-08-07T06:07:19;13.60;1.00
14614;DHT22;7393;51.446;6.800;2023-08-07T06:09:46;13.60;1.00
14614;DHT22;7393;51.446;6.800;2023-08-07T06:12:14;13.60;1.00
14614;DHT22;7393;51.446;6.800;2023-08-07T06:14:41;13.60;1.00
14614;DHT22;7393;51.446;6.800;2023-08-07T06:17:08;13.60;1.00
14614;DHT22;7393;51.446;6.800;2023-08-07T06:19:35;13.60;1.00
14614;DHT22;7393;51.446;6.800;2023-08-07T06:22:02;13.70;1.00
14614;DHT22;7393;51.446;6.800;2023-08-07T06:24:29;13.70;1.00
14614;DHT22;7393;51.446;6.800;2023-08-07T06:26:56;13.70;1.00
14614;DHT22;7393;51.446;6.800;2023-08-07T06:29:24;13.70;1.00
14614;DHT22;7393;51.446;6.800;2023-08-07T06:31:50;13.70;1.00
14614;DHT22;7393;51.446;6.800;2023-08-07T06:34:17;13.70;1.00
14614;DHT22;7393;51.446;6.800;2023-08-07T06:36:44;13.80;1.00
14614;DHT22;7393;51.446;6.800;2023-08-07T06:39:11;13.80;1.00
14614;DHT22;7393;51.446;6.800;2023-08-07T06:41:37;13.80;1.00
14614;DHT22;7393;51.446;6.800;2023-08-07T06:44:04;13.80;1.00
14614;DHT22;7393;51.446;6.800;2023-08-07T06:46:33;13.80;1.00
14614;DHT22;7393;51.446;6.800;2023-08-07T06:48:59;13.80;1.00
14614;DHT22;7393;51.446;6.800;2023-08-07T06:51:26;13.80;1.00
14614;DHT22;7393;51.446;6.800;2023-08-07T06:53:53;13.90;1.00
14614;DHT22;7393;51.446;6.800;2023-08-07T06:56:20;13.90;1.00
14614;DHT22;7393;51.446;6.800;2023-08-07T06:58:46;13.80;1.00
14614;DHT22;7393;51.446;6.800;2023-08-07T07:01:13;13.90;1.00
14614;DHT22;7393;51.446;6.800;2023-08-07T07:03:41;14.00;1.00
14614;DHT22;7393;51.446;6.800;2023-08-07T07:06:11;14.00;1.00
14614;DHT22;7393;51.446;6.800;2023-08-07T07:08:37;14.00;1.00
14614;DHT22;7393;51.446;6.800;2023-08-07T07:11:04;14.00;1.00
14614;DHT22;7393;51.446;6.800;2023-08-07T07:13:31;14.00;1.00
14614;DHT22;7393;51.446;6.800;2023-08-07T07:15:58;13.90;1.00
14614;DHT22;7393;51.446;6.800;2023-08-07T07:18:25;13.90;1.00
14614;DHT22;7393;51.446;6.800;2023-08-07T07:20:58;13.90;1.00
14614;DHT22;7393;51.446;6.800;2023-08-07T07:23:26;14.00;1.00
14614;DHT22;7393;51.446;6.800;2023-08-07T07:25:53;14.00;1.00
14614;DHT22;7393;51.446;6.800;2023-08-07T07:28:20;14.00;1.00
14614;DHT22;7393;51.446;6.800;2023-08-07T07:30:47;14.00;1.00
14614;DHT22;7393;51.446;6.800;2023-08-07T07:33:13;14.00;1.00
14614;DHT22;7393;51.446;6.800;2023-08-07T07:35:40;14.00;1.00
14614;DHT22;7393;51.446;6.800;2023-08-07T07:38:09;14.00;1.00
14614;DHT22;7393;51.446;6.800;2023-08-07T07:40:37;14.10;1.00
14614;DHT22;7393;51.446;6.800;2023-08-07T07:43:04;14.10;1.00
14614;DHT22;7393;51.446;6.800;2023-08-07T07:45:30;14.10;1.00
14614;DHT22;7393;51.446;6.800;2023-08-07T07:47:59;14.10;1.00
14614;DHT22;7393;51.446;6.800;2023-08-07T07:50:26;14.10;1.00
14614;DHT22;7393;51.446;6.800;2023-08-07T07:52:53;14.10;1.00
14614;DHT22;7393;51.446;6.800;2023-08-07T07:55:21;14.10;1.00
14614;DHT22;7393;51.446;6.800;2023-08-07T07:57:48;14.10;1.00
14614;DHT22;7393;51.446;6.800;2023-08-07T08:00:15;14.10;1.00
14614;DHT22;7393;51.446;6.800;2023-08-07T08:02:42;14.20;1.00
14614;DHT22;7393;51.446;6.800;2023-08-07T08:05:09;14.20;1.00
14614;DHT22;7393;51.446;6.800;2023-08-07T08:07:37;14.20;1.00
14614;DHT22;7393;51.446;6.800;2023-08-07T08:10:06;14.30;1.00
14614;DHT22;7393;51.446;6.800;2023-08-07T08:12:34;14.30;1.00
14614;DHT22;7393;51.446;6.800;2023-08-07T08:15:01;14.30;1.00
14614;DHT22;7393;51.446;6.800;2023-08-07T08:17:28;14.30;1.00
14614;DHT22;7393;51.446;6.800;2023-08-07T08:19:55;14.30;1.00
14614;DHT22;7393;51.446;6.800;2023-08-07T08:22:22;14.40;1.00
14614;DHT22;7393;51.446;6.800;2023-08-07T08:24:49;14.40;1.00
14614;DHT22;7393;51.446;6.800;2023-08-07T08:27:16;14.40;1.00
14614;DHT22;7393;51.446;6.800;2023-08-07T08:29:45;14.50;1.00
14614;DHT22;7393;51.446;6.800;2023-08-07T08:32:12;14.50;1.00
14614;DHT22;7393;51.446;6.800;2023-08-07T08:34:39;14.60;1.00
14614;DHT22;7393;51.446;6.800;2023-08-07T08:37:06;14.60;1.00
14614;DHT22;7393;51.446;6.800;2023-08-07T08:39:33;14.60;1.00
14614;DHT22;7393;51.446;6.800;2023-08-07T08:42:00;14.70;1.00
14614;DHT22;7393;51.446;6.800;2023-08-07T08:44:29;14.70;1.00
14614;DHT22;7393;51.446;6.800;2023-08-07T08:47:00;14.80;1.00
14614;DHT22;7393;51.446;6.800;2023-08-07T08:49:30;14.80;1.00
14614;DHT22;7393;51.446;6.800;2023-08-07T08:51:59;14.90;1.00
14614;DHT22;7393;51.446;6.800;2023-08-07T08:54:26;15.00;1.00
14614;DHT22;7393;51.446;6.800;2023-08-07T08:56:55;15.00;1.00
14614;DHT22;7393;51.446;6.800;2023-08-07T08:59:22;15.10;1.00
14614;DHT22;7393;51.446;6.800;2023-08-07T09:01:51;15.20;1.00
14614;DHT22;7393;51.446;6.800;2023-08-07T09:04:19;15.20;1.00
14614;DHT22;7393;51.446;6.800;2023-08-07T09:06:46;15.30;1.00
14614;DHT22;7393;51.446;6.800;2023-08-07T09:09:14;15.40;1.00
14614;DHT22;7393;51.446;6.800;2023-08-07T09:11:41;15.60;1.00
14614;DHT22;7393;51.446;6.800;2023-08-07T09:14:09;15.80;1.00
14614;DHT22;7393;51.446;6.800;2023-08-07T09:16:38;15.90;1.00
14614;DHT22;7393;51.446;6.800;2023-08-07T09:19:06;16.00;1.00
14614;DHT22;7393;51.446;6.800;2023-08-07T09:21:35;16.10;1.00
14614;DHT22;7393;51.446;6.800;2023-08-07T09:24:02;16.10;1.00
14614;DHT22;7393;51.446;6.800;2023-08-07T09:26:32;16.10;1.00
14614;DHT22;7393;51.446;6.800;2023-08-07T09:28:59;16.10;1.00
14614;DHT22;7393;51.446;6.800;2023-08-07T09:31:26;16.10;1.00
14614;DHT22;7393;51.446;6.800;2023-08-07T09:34:01;16.00;1.00
14614;DHT22;7393;51.446;6.800;2023-08-07T09:36:30;16.00;1.00
14614;DHT22;7393;51.446;6.800;2023-08-07T09:39:00;16.00;1.00
14614;DHT22;7393;51.446;6.800;2023-08-07T09:41:28;15.90;1.00
14614;DHT22;7393;51.446;6.800;2023-08-07T09:43:55;15.90;1.00
14614;DHT22;7393;51.446;6.800;2023-08-07T09:46:22;15.90;1.00
14614;DHT22;7393;51.446;6.800;2023-08-07T09:48:49;15.90;1.00
14614;DHT22;7393;51.446;6.800;2023-08-07T09:51:16;16.00;1.00
14614;DHT22;7393;51.446;6.800;2023-08-07T09:53:43;16.00;1.00
14614;DHT22;7393;51.446;6.800;2023-08-07T09:56:11;16.00;1.00
14614;DHT22;7393;51.446;6.800;2023-08-07T09:58:46;16.00;1.00
14614;DHT22;7393;51.446;6.800;2023-08-07T10:01:16;16.10;1.00
14614;DHT22;7393;51.446;6.800;2023-08-07T10:03:43;16.20;1.00
14614;DHT22;7393;51.446;6.800;2023-08-07T10:06:10;16.40;1.00
14614;DHT22;7393;51.446;6.800;2023-08-07T10:08:38;16.40;1.00
14614;DHT22;7393;51.446;6.800;2023-08-07T10:11:07;16.50;1.00
14614;DHT22;7393;51.446;6.800;2023-08-07T10:13:36;16.60;1.00
14614;DHT22;7393;51.446;6.800;2023-08-07T10:16:04;16.70;1.00
14614;DHT22;7393;51.446;6.800;2023-08-07T10:18:31;16.90;1.00
14614;DHT22;7393;51.446;6.800;2023-08-07T10:20:57;17.10;1.00
14614;DHT22;7393;51.446;6.800;2023-08-07T10:23:25;17.20;1.00
14614;DHT22;7393;51.446;6.800;2023-08-07T10:25:53;17.30;1.00
14614;DHT22;7393;51.446;6.800;2023-08-07T10:28:22;17.40;1.00
14614;DHT22;7393;51.446;6.800;2023-08-07T10:30:51;17.50;99.90
14614;DHT22;7393;51.446;6.800;2023-08-07T10:33:18;17.50;99.90
14614;DHT22;7393;51.446;6.800;2023-08-07T10:35:47;17.40;99.90
14614;DHT22;7393;51.446;6.800;2023-08-07T10:38:14;17.40;1.00
14614;DHT22;7393;51.446;6.800;2023-08-07T10:41:07;17.40;1.00
14614;DHT22;7393;51.446;6.800;2023-08-07T10:43:38;17.30;99.90
14614;DHT22;7393;51.446;6.800;2023-08-07T10:46:09;17.30;99.90
14614;DHT22;7393;51.446;6.800;2023-08-07T10:48:41;17.10;1.00
14614;DHT22;7393;51.446;6.800;2023-08-07T10:51:08;17.00;1.00
14614;DHT22;7393;51.446;6.800;2023-08-07T10:53:36;16.80;99.90
14614;DHT22;7393;51.446;6.800;2023-08-07T10:56:04;16.70;1.00
14614;DHT22;7393;51.446;6.800;2023-08-07T10:58:34;16.50;1.00
14614;DHT22;7393;51.446;6.800;2023-08-07T11:01:27;16.40;1.00
14614;DHT22;7393;51.446;6.800;2023-08-07T11:03:55;16.50;1.00
14614;DHT22;7393;51.446;6.800;2023-08-07T11:06:23;16.50;1.00
14614;DHT22;7393;51.446;6.800;2023-08-07T11:08:52;16.70;1.00
14614;DHT22;7393;51.446;6.800;2023-08-07T11:11:19;16.90;1.00
14614;DHT22;7393;51.446;6.800;2023-08-07T11:13:46;17.10;1.00
14614;DHT22;7393;51.446;6.800;2023-08-07T11:16:13;17.30;1.00
14614;DHT22;7393;51.446;6.800;2023-08-07T11:18:42;17.40;1.00
14614;DHT22;7393;51.446;6.800;2023-08-07T11:21:10;17.50;1.00
14614;DHT22;7393;51.446;6.800;2023-08-07T11:23:37;17.60;1.00
14614;DHT22;7393;51.446;6.800;2023-08-07T11:26:04;17.70;1.00
14614;DHT22;7393;51.446;6.800;2023-08-07T11:28:31;17.70;1.00
14614;DHT22;7393;51.446;6.800;2023-08-07T11:30:58;17.70;1.00
14614;DHT22;7393;51.446;6.800;2023-08-07T11:33:26;17.70;1.00
14614;DHT22;7393;51.446;6.800;2023-08-07T11:35:55;17.60;1.00
14614;DHT22;7393;51.446;6.800;2023-08-07T11:38:32;17.50;1.00
14614;DHT22;7393;51.446;6.800;2023-08-07T11:41:00;17.50;1.00
14614;DHT22;7393;51.446;6.800;2023-08-07T11:43:28;17.50;1.00
14614;DHT22;7393;51.446;6.800;2023-08-07T11:45:56;17.50;1.00
14614;DHT22;7393;51.446;6.800;2023-08-07T11:48:24;17.60;1.00
14614;DHT22;7393;51.446;6.800;2023-08-07T11:50:51;17.70;1.00
14614;DHT22;7393;51.446;6.800;2023-08-07T11:53:20;17.80;1.00
14614;DHT22;7393;51.446;6.800;2023-08-07T11:55:51;17.80;99.90
14614;DHT22;7393;51.446;6.800;2023-08-07T11:58:18;17.80;99.90
14614;DHT22;7393;51.446;6.800;2023-08-07T12:00:46;17.80;99.90
14614;DHT22;7393;51.446;6.800;2023-08-07T12:03:31;17.90;99.90
14614;DHT22;7393;51.446;6.800;2023-08-07T12:06:02;18.10;99.90
14614;DHT22;7393;51.446;6.800;2023-08-07T12:08:33;18.20;99.90
14614;DHT22;7393;51.446;6.800;2023-08-07T12:11:01;18.40;1.00
14614;DHT22;7393;51.446;6.800;2023-08-07T12:13:30;18.60;1.00
14614;DHT22;7393;51.446;6.800;2023-08-07T12:15:57;18.90;1.00
14614;DHT22;7393;51.446;6.800;2023-08-07T12:18:26;19.10;1.00
14614;DHT22;7393;51.446;6.800;2023-08-07T12:20:57;19.30;99.90
14614;DHT22;7393;51.446;6.800;2023-08-07T12:23:25;19.50;99.90
14614;DHT22;7393;51.446;6.800;2023-08-07T12:25:54;19.60;1.00
14614;DHT22;7393;51.446;6.800;2023-08-07T12:28:21;19.80;99.90
14614;DHT22;7393;51.446;6.800;2023-08-07T12:30:48;20.00;1.00
14614;DHT22;7393;51.446;6.800;2023-08-07T12:33:15;20.20;1.00
14614;DHT22;7393;51.446;6.800;2023-08-07T12:35:42;20.20;99.90
14614;DHT22;7393;51.446;6.800;2023-08-07T12:38:09;20.30;99.90
14614;DHT22;7393;51.446;6.800;2023-08-07T12:40:36;20.40;99.90
14614;DHT22;7393;51.446;6.800;2023-08-07T12:43:05;20.40;99.90
14614;DHT22;7393;51.446;6.800;2023-08-07T12:45:32;20.40;99.90
14614;DHT22;7393;51.446;6.800;2023-08-07T12:47:59;20.40;94.90
14614;DHT22;7393;51.446;6.800;2023-08-07T12:50:28;20.40;99.90
14614;DHT22;7393;51.446;6.800;2023-08-07T12:52:55;20.40;99.90
14614;DHT22;7393;51.446;6.800;2023-08-07T12:55:22;20.30;99.90
14614;DHT22;7393;51.446;6.800;2023-08-07T12:57:48;20.30;99.90
14614;DHT22;7393;51.446;6.800;2023-08-07T13:00:17;20.30;99.90
14614;DHT22;7393;51.446;6.800;2023-08-07T13:02:45;20.20;99.90
14614;DHT22;7393;51.446;6.800;2023-08-07T13:05:13;20.20;96.70
14614;DHT22;7393;51.446;6.800;2023-08-07T13:07:40;20.30;97.80
14614;DHT22;7393;51.446;6.800;2023-08-07T13:10:09;20.40;99.90
14614;DHT22;7393;51.446;6.800;2023-08-07T13:12:38;20.50;99.90
14614;DHT22;7393;51.446;6.800;2023-08-07T13:15:06;20.70;26.50
14614;DHT22;7393;51.446;6.800;2023-08-07T13:17:35;20.80;1.00
14614;DHT22;7393;51.446;6.800;2023-08-07T13:20:03;20.80;1.00
14614;DHT22;7393;51.446;6.800;2023-08-07T13:22:33;20.90;1.00
14614;DHT22;7393;51.446;6.800;2023-08-07T13:25:00;21.00;1.00
14614;DHT22;7393;51.446;6.800;2023-08-07T13:27:28;21.10;1.00
14614;DHT22;7393;51.446;6.800;2023-08-07T13:29:55;21.10;1.00
14614;DHT22;7393;51.446;6.800;2023-08-07T13:32:22;21.10;1.00
14614;DHT22;7393;51.446;6.800;2023-08-07T13:34:50;21.20;1.00
14614;DHT22;7393;51.446;6.800;2023-08-07T13:37:17;21.40;1.00
14614;DHT22;7393;51.446;6.800;2023-08-07T13:39:44;21.50;1.00
14614;DHT22;7393;51.446;6.800;2023-08-07T13:42:10;21.70;1.00
14614;DHT22;7393;51.446;6.800;2023-08-07T13:44:37;21.90;1.00
14614;DHT22;7393;51.446;6.800;2023-08-07T13:47:05;22.10;1.00
14614;DHT22;7393;51.446;6.800;2023-08-07T13:49:32;22.30;1.00
14614;DHT22;7393;51.446;6.800;2023-08-07T13:52:00;22.40;1.00
14614;DHT22;7393;51.446;6.800;2023-08-07T13:54:27;22.50;1.00
14614;DHT22;7393;51.446;6.800;2023-08-07T13:56:53;22.60;1.00
14614;DHT22;7393;51.446;6.800;2023-08-07T13:59:20;22.60;1.00
14614;DHT22;7393;51.446;6.800;2023-08-07T14:01:47;22.60;1.00
14614;DHT22;7393;51.446;6.800;2023-08-07T14:04:14;22.60;1.00
14614;DHT22;7393;51.446;6.800;2023-08-07T14:06:41;22.60;1.00
14614;DHT22;7393;51.446;6.800;2023-08-07T14:09:10;22.60;1.00
14614;DHT22;7393;51.446;6.800;2023-08-07T14:11:39;22.50;1.00
14614;DHT22;7393;51.446;6.800;2023-08-07T14:14:06;22.40;1.00
14614;DHT22;7393;51.446;6.800;2023-08-07T14:16:33;22.40;1.00
14614;DHT22;7393;51.446;6.800;2023-08-07T14:18:59;22.40;1.00
14614;DHT22;7393;51.446;6.800;2023-08-07T14:21:26;22.40;1.00
14614;DHT22;7393;51.446;6.800;2023-08-07T14:23:53;22.50;1.00
14614;DHT22;7393;51.446;6.800;2023-08-07T14:26:22;22.50;1.00
14614;DHT22;7393;51.446;6.800;2023-08-07T14:28:48;22.40;1.00
14614;DHT22;7393;51.446;6.800;2023-08-07T14:31:15;22.30;1.00
14614;DHT22;7393;51.446;6.800;2023-08-07T14:33:42;22.30;1.00
14614;DHT22;7393;51.446;6.800;2023-08-07T14:36:09;22.30;1.00
14614;DHT22;7393;51.446;6.800;2023-08-07T14:38:36;22.20;1.00
14614;DHT22;7393;51.446;6.800;2023-08-07T14:41:03;22.10;1.00
14614;DHT22;7393;51.446;6.800;2023-08-07T14:43:31;22.00;1.00
14614;DHT22;7393;51.446;6.800;2023-08-07T14:45:58;21.90;1.00
14614;DHT22;7393;51.446;6.800;2023-08-07T14:48:25;21.90;1.00
14614;DHT22;7393;51.446;6.800;2023-08-07T14:50:52;21.70;1.00
14614;DHT22;7393;51.446;6.800;2023-08-07T14:53:19;21.70;1.00
14614;DHT22;7393;51.446;6.800;2023-08-07T14:55:45;21.60;1.00
14614;DHT22;7393;51.446;6.800;2023-08-07T14:58:12;21.60;1.00
14614;DHT22;7393;51.446;6.800;2023-08-07T15:00:41;21.50;1.00
14614;DHT22;7393;51.446;6.800;2023-08-07T15:03:07;21.40;1.00
14614;DHT22;7393;51.446;6.800;2023-08-07T15:05:34;21.40;1.00
14614;DHT22;7393;51.446;6.800;2023-08-07T15:08:01;21.30;1.00
14614;DHT22;7393;51.446;6.800;2023-08-07T15:10:28;21.30;1.00
14614;DHT22;7393;51.446;6.800;2023-08-07T15:12:55;21.30;1.00
14614;DHT22;7393;51.446;6.800;2023-08-07T15:15:22;21.20;1.00
14614;DHT22;7393;51.446;6.800;2023-08-07T15:17:50;21.20;1.00
14614;DHT22;7393;51.446;6.800;2023-08-07T15:20:18;21.20;1.00
14614;DHT22;7393;51.446;6.800;2023-08-07T15:22:45;21.10;1.00
14614;DHT22;7393;51.446;6.800;2023-08-07T15:25:13;21.10;1.00
14614;DHT22;7393;51.446;6.800;2023-08-07T15:27:40;21.20;1.00
14614;DHT22;7393;51.446;6.800;2023-08-07T15:30:07;21.10;1.00
14614;DHT22;7393;51.446;6.800;2023-08-07T15:32:35;21.00;1.00
14614;DHT22;7393;51.446;6.800;2023-08-07T15:35:04;21.00;1.00
14614;DHT22;7393;51.446;6.800;2023-08-07T15:37:31;20.90;1.00
14614;DHT22;7393;51.446;6.800;2023-08-07T15:39:58;20.80;1.00
14614;DHT22;7393;51.446;6.800;2023-08-07T15:42:25;20.70;1.00
14614;DHT22;7393;51.446;6.800;2023-08-07T15:44:51;20.60;1.00
14614;DHT22;7393;51.446;6.800;2023-08-07T15:47:18;20.60;1.00
14614;DHT22;7393;51.446;6.800;2023-08-07T15:49:45;20.50;1.00
14614;DHT22;7393;51.446;6.800;2023-08-07T15:52:15;20.40;1.00
14614;DHT22;7393;51.446;6.800;2023-08-07T15:54:43;20.30;1.00
14614;DHT22;7393;51.446;6.800;2023-08-07T15:57:11;20.30;1.00
14614;DHT22;7393;51.446;6.800;2023-08-07T15:59:38;20.20;1.00
14614;DHT22;7393;51.446;6.800;2023-08-07T16:02:06;20.10;1.00